Time;durP1;ratioP1;P1;durP2;ratioP2;P2;SDS_P1;SDS_P2;PMS_P1;PMS_P2;Temp;Humidity;BMP_temperature;BMP_pressure;BME280_temperature;BME280_humidity;BME280_pressure;Samples;Min_cycle;Max_cycle;Signal;HPM_P1;HPM_P2
2022/11/01 00:01:33;;;;;;;15.27;4.07;;;15.40;99.90;;;;;;5016035;28;21497;-60
2022/11/01 00:03:58;;;;;;;16.48;5.07;;;15.40;99.90;;;;;;5025255;28;20097;-60
2022/11/01 00:06:24;;;;;;;16.80;4.32;;;15.50;99.90;;;;;;5028880;28;20021;-59
2022/11/01 00:08:50;;;;;;;12.43;4.57;;;15.60;99.90;;;;;;5022038;28;20021;-61
2022/11/01 00:11:17;;;;;;;15.75;5.45;;;15.50;99.90;;;;;;5024749;28;20587;-60
2022/11/01 00:13:47;;;;;;;17.42;4.32;;;15.60;99.90;;;;;;5019282;28;20030;-61
2022/11/01 00:16:13;;;;;;;11.57;3.90;;;15.60;99.90;;;;;;5014337;28;20929;-61
2022/11/01 00:18:39;;;;;;;10.07;3.90;;;15.70;99.90;;;;;;5022853;28;20491;-60
2022/11/01 00:21:04;;;;;;;10.63;3.80;;;15.70;99.90;;;;;;5020172;28;20037;-60
2022/11/01 00:23:30;;;;;;;17.48;4.45;;;15.70;99.90;;;;;;5022602;28;20048;-61
2022/11/01 00:25:59;;;;;;;15.85;6.38;;;15.70;99.90;;;;;;5024658;28;20104;-61
2022/11/01 00:28:26;;;;;;;11.75;4.85;;;15.90;99.90;;;;;;5018899;28;20033;-61
2022/11/01 00:30:54;;;;;;;9.30;4.80;;;15.90;99.90;;;;;;5018627;28;20053;-60
2022/11/01 00:33:19;;;;;;;11.27;4.00;;;15.90;99.90;;;;;;5021858;28;20052;-61
2022/11/01 00:35:46;;;;;;;9.68;5.57;;;15.90;99.90;;;;;;5021196;28;20033;-61
2022/11/01 00:38:12;;;;;;;15.45;4.22;;;16.00;99.90;;;;;;5019013;28;20034;-60
2022/11/01 00:40:38;;;;;;;19.42;5.47;;;16.00;99.90;;;;;;5020275;28;20424;-60
2022/11/01 00:43:03;;;;;;;21.30;4.88;;;15.90;99.90;;;;;;5019201;28;20109;-59
2022/11/01 00:45:29;;;;;;;20.70;4.97;;;15.90;99.90;;;;;;5024450;28;20038;-60
2022/11/01 00:47:54;;;;;;;16.08;3.83;;;15.80;99.90;;;;;;5027708;28;20071;-59
2022/11/01 00:50:20;;;;;;;15.75;4.68;;;15.80;99.90;;;;;;5023003;28;20029;-61
2022/11/01 00:52:46;;;;;;;19.00;5.72;;;15.80;99.90;;;;;;5024325;28;20112;-60
2022/11/01 00:55:11;;;;;;;10.40;4.05;;;15.70;99.90;;;;;;5020195;28;20033;-59
2022/11/01 00:57:37;;;;;;;14.43;4.60;;;15.70;99.90;;;;;;5022724;28;20566;-60
2022/11/01 01:00:03;;;;;;;16.98;5.28;;;15.70;99.90;;;;;;5024062;28;20113;-62
2022/11/01 01:02:29;;;;;;;17.40;5.43;;;15.60;99.90;;;;;;5022586;28;20061;-59
2022/11/01 01:04:54;;;;;;;10.93;4.85;;;15.50;99.90;;;;;;5027407;28;20053;-61
2022/11/01 01:07:20;;;;;;;15.63;5.32;;;15.40;99.90;;;;;;5029850;28;20060;-61
2022/11/01 01:09:46;;;;;;;11.30;5.07;;;15.40;99.90;;;;;;5027748;28;20128;-60
2022/11/01 01:12:11;;;;;;;16.42;4.75;;;15.30;99.90;;;;;;5029990;28;20483;-58
2022/11/01 01:14:37;;;;;;;19.40;5.57;;;15.30;99.90;;;;;;5028774;28;20044;-58
2022/11/01 01:17:02;;;;;;;20.25;5.25;;;15.30;99.90;;;;;;5030833;28;20025;-60
2022/11/01 01:19:28;;;;;;;12.48;5.05;;;15.30;99.90;;;;;;5026927;28;20029;-60
2022/11/01 01:21:55;;;;;;;24.77;5.60;;;15.30;99.90;;;;;;5028431;28;20079;-59
2022/11/01 01:24:20;;;;;;;16.67;4.68;;;15.30;99.90;;;;;;5024247;28;20124;-59
2022/11/01 01:26:46;;;;;;;23.48;6.20;;;15.20;99.90;;;;;;5029383;28;20053;-60
2022/11/01 01:29:12;;;;;;;11.77;4.88;;;15.20;99.90;;;;;;5030433;28;20108;-60
2022/11/01 01:31:37;;;;;;;19.55;5.38;;;15.10;99.90;;;;;;5030056;28;20025;-60
2022/11/01 01:34:03;;;;;;;13.55;5.68;;;15.20;99.90;;;;;;5029332;28;20409;-60
2022/11/01 01:36:28;;;;;;;28.27;5.72;;;15.20;99.90;;;;;;5028714;28;20541;-60
2022/11/01 01:38:54;;;;;;;24.67;5.13;;;15.20;99.90;;;;;;5027135;28;20051;-60
2022/11/01 01:44:42;;;;;;;16.88;4.80;;;15.20;99.90;;;;;;5026184;28;20197;-61
2022/11/01 01:47:11;;;;;;;10.90;4.57;;;15.30;99.90;;;;;;5029386;28;20044;-61
2022/11/01 01:49:36;;;;;;;12.90;4.88;;;15.30;99.90;;;;;;5026170;28;20671;-61
2022/11/01 01:52:02;;;;;;;14.02;4.25;;;15.40;99.90;;;;;;5026526;28;20064;-61
2022/11/01 01:54:29;;;;;;;14.55;4.05;;;15.50;99.90;;;;;;5031306;28;20025;-60
2022/11/01 01:56:55;;;;;;;14.02;6.63;;;15.50;99.90;;;;;;5028778;28;20713;-60
2022/11/01 01:59:20;;;;;;;11.90;4.47;;;15.50;99.90;;;;;;5028780;28;20118;-59
2022/11/01 02:01:46;;;;;;;23.15;5.47;;;15.50;99.90;;;;;;5029290;28;20058;-61
2022/11/01 02:04:21;;;;;;;14.27;5.15;;;15.40;99.90;;;;;;5029133;28;20029;-60
2022/11/01 02:06:47;;;;;;;15.73;4.72;;;15.40;99.90;;;;;;5027108;28;20084;-60
2022/11/01 02:09:15;;;;;;;20.92;5.43;;;15.40;99.90;;;;;;5022126;28;20014;-60
2022/11/01 02:11:40;;;;;;;15.82;4.55;;;15.40;99.90;;;;;;5017166;28;20479;-60
2022/11/01 02:14:06;;;;;;;11.95;4.63;;;15.50;99.90;;;;;;5022401;28;20044;-60
2022/11/01 02:16:38;;;;;;;15.18;5.20;;;15.50;99.90;;;;;;5027561;28;20025;-60
2022/11/01 02:19:26;;;;;;;15.70;4.35;;;15.60;99.90;;;;;;5024632;28;20026;-60
2022/11/01 02:22:06;;;;;;;15.30;5.30;;;15.70;99.90;;;;;;5019253;28;20033;-60
2022/11/01 02:25:09;;;;;;;11.35;4.80;;;15.70;99.90;;;;;;5025459;28;20029;-58
2022/11/01 02:27:52;;;;;;;11.27;4.70;;;16.00;99.90;;;;;;5026504;28;20120;-59
2022/11/01 02:30:20;;;;;;;8.48;3.88;;;16.00;99.90;;;;;;5021238;28;20850;-60
2022/11/01 02:32:58;;;;;;;9.90;5.28;;;16.10;99.90;;;;;;5023905;28;20387;-61
2022/11/01 02:35:29;;;;;;;10.73;4.38;;;16.20;99.90;;;;;;5029895;28;20064;-59
2022/11/01 02:38:24;;;;;;;8.05;3.90;;;16.40;99.90;;;;;;5021563;28;20030;-60
2022/11/01 02:41:02;;;;;;;7.78;3.00;;;16.30;99.90;;;;;;5025366;28;20060;-60
2022/11/01 02:43:38;;;;;;;18.25;4.20;;;16.30;99.90;;;;;;5020508;28;20579;-59
2022/11/01 02:48:52;;;;;;;9.35;3.47;;;16.40;99.90;;;;;;5028284;28;20036;-61
2022/11/01 02:51:20;;;;;;;5.95;3.25;;;16.60;99.90;;;;;;5020412;28;20032;-61
2022/11/01 02:53:46;;;;;;;7.70;3.10;;;16.70;99.90;;;;;;5026532;28;20431;-61
2022/11/01 02:56:12;;;;;;;12.75;2.70;;;16.80;99.90;;;;;;5023962;28;20048;-61
2022/11/01 02:58:38;;;;;;;11.95;3.88;;;17.00;99.90;;;;;;5028495;28;20040;-60
2022/11/01 03:01:14;;;;;;;8.63;3.40;;;17.00;99.90;;;;;;5027772;28;20033;-61
2022/11/01 03:03:41;;;;;;;10.93;3.22;;;16.90;99.90;;;;;;5025526;28;20091;-60
2022/11/01 03:06:22;;;;;;;6.65;3.10;;;16.90;99.90;;;;;;5025066;28;20033;-61
2022/11/01 03:08:53;;;;;;;12.18;3.00;;;17.00;99.90;;;;;;5022517;28;20036;-61
2022/11/01 03:11:25;;;;;;;9.35;3.17;;;17.00;99.90;;;;;;5028370;28;20573;-60
2022/11/01 03:14:03;;;;;;;6.50;2.95;;;17.10;99.90;;;;;;5023276;28;20037;-60
2022/11/01 03:16:34;;;;;;;6.38;2.58;;;17.00;99.90;;;;;;5026827;28;20025;-60
2022/11/01 03:19:03;;;;;;;24.92;5.63;;;17.00;99.90;;;;;;5026195;28;21462;-60
2022/11/01 03:21:41;;;;;;;8.85;2.83;;;17.00;99.90;;;;;;5026261;28;20112;-59
2022/11/01 03:24:27;;;;;;;7.03;3.25;;;17.00;99.90;;;;;;5026811;28;20030;-60
2022/11/01 03:27:10;;;;;;;8.40;3.35;;;17.00;99.90;;;;;;5027354;28;20022;-60
2022/11/01 03:29:37;;;;;;;15.38;3.85;;;16.90;99.90;;;;;;5022535;28;20108;-60
2022/11/01 03:32:04;;;;;;;9.15;3.45;;;16.90;99.90;;;;;;5026257;28;20121;-60
2022/11/01 03:34:32;;;;;;;7.13;3.03;;;16.90;99.90;;;;;;5025895;28;20026;-60
2022/11/01 03:37:03;;;;;;;6.82;4.07;;;16.90;99.90;;;;;;5025728;28;20033;-58
2022/11/01 03:39:45;;;;;;;14.27;3.97;;;16.80;99.90;;;;;;5025848;28;20086;-61
2022/11/01 03:42:15;;;;;;;9.32;2.80;;;16.70;99.90;;;;;;5021606;28;20026;-59
2022/11/01 03:44:45;;;;;;;6.18;3.65;;;16.70;99.90;;;;;;5026282;28;20067;-60
2022/11/01 03:47:12;;;;;;;8.27;3.40;;;16.70;99.90;;;;;;5026321;28;20038;-60
2022/11/01 03:49:38;;;;;;;6.75;3.55;;;16.60;99.90;;;;;;5024162;28;20112;-61
2022/11/01 03:52:04;;;;;;;11.77;4.03;;;16.60;99.90;;;;;;5020936;28;20468;-61
2022/11/01 03:54:29;;;;;;;17.05;3.85;;;16.60;99.90;;;;;;5017820;28;20068;-61
2022/11/01 03:56:55;;;;;;;15.25;3.92;;;16.50;99.90;;;;;;5022678;28;20120;-61
2022/11/01 03:59:22;;;;;;;4.47;2.72;;;16.50;99.90;;;;;;5025269;28;20098;-61
2022/11/01 04:01:48;;;;;;;7.28;3.05;;;16.50;99.90;;;;;;5021524;28;20026;-60
2022/11/01 04:04:13;;;;;;;15.13;3.85;;;16.50;99.90;;;;;;5020865;28;20036;-61
2022/11/01 04:06:39;;;;;;;12.48;3.15;;;16.50;99.90;;;;;;5038193;22;20500;-63
2022/11/01 04:09:04;;;;;;;12.60;3.40;;;16.50;99.90;;;;;;5024484;28;20036;-59
2022/11/01 04:11:30;;;;;;;7.97;3.10;;;16.50;99.90;;;;;;5026400;28;20046;-62
2022/11/01 04:20:31;;;;;;;11.23;3.55;;;16.40;99.90;;;;;;5011611;28;20021;-61
2022/11/01 04:22:09;;;;;;;14.50;3.08;;;16.30;99.90;;;;;;5003822;28;20542;-63
2022/11/01 04:24:34;;;;;;;7.47;3.40;;;16.30;99.90;;;;;;5007986;28;20053;-64
2022/11/01 04:27:00;;;;;;;10.63;2.67;;;16.20;99.90;;;;;;5006787;28;20105;-63
2022/11/01 04:29:26;;;;;;;9.25;3.17;;;16.10;99.90;;;;;;5007434;28;20030;-63
2022/11/01 04:31:51;;;;;;;9.23;2.80;;;16.20;99.90;;;;;;5007183;28;20029;-64
2022/11/01 04:34:40;;;;;;;11.25;3.13;;;16.10;99.90;;;;;;5008859;28;20498;-64
2022/11/01 04:37:02;;;;;;;11.65;2.70;;;16.10;99.90;;;;;;5002735;28;20416;-63
2022/11/01 04:39:28;;;;;;;5.22;2.78;;;16.10;99.90;;;;;;5008810;28;20041;-62
2022/11/01 04:41:53;;;;;;;5.95;3.00;;;16.00;99.90;;;;;;5009446;28;20022;-61
2022/11/01 04:44:18;;;;;;;10.60;3.88;;;16.10;99.90;;;;;;5012951;28;20026;-63
2022/11/01 04:46:44;;;;;;;9.35;3.53;;;16.00;99.90;;;;;;5012662;28;20038;-64
2022/11/01 04:49:10;;;;;;;4.03;2.63;;;16.00;99.90;;;;;;5011000;28;20034;-63
2022/11/01 04:51:39;;;;;;;9.68;3.33;;;15.90;99.90;;;;;;5011589;28;20432;-62
2022/11/01 04:54:05;;;;;;;11.27;3.72;;;15.80;99.90;;;;;;5010126;28;20476;-62
2022/11/01 04:56:31;;;;;;;21.75;3.97;;;15.70;99.90;;;;;;5010902;28;20026;-63
2022/11/01 04:58:56;;;;;;;10.90;3.40;;;15.70;99.90;;;;;;5009249;28;20492;-64
2022/11/01 05:01:22;;;;;;;11.20;3.42;;;15.60;99.90;;;;;;5010466;28;20034;-64
2022/11/01 05:03:48;;;;;;;8.02;3.33;;;15.60;99.90;;;;;;5009598;28;20026;-63
2022/11/01 05:06:13;;;;;;;13.23;3.83;;;15.50;99.90;;;;;;4989847;28;20056;-63
2022/11/01 05:08:39;;;;;;;12.82;4.15;;;15.50;99.90;;;;;;5012349;28;20024;-65
2022/11/01 05:11:04;;;;;;;9.77;3.72;;;15.60;99.90;;;;;;5011018;28;20108;-62
2022/11/01 05:13:30;;;;;;;13.27;3.83;;;15.60;99.90;;;;;;5009527;28;20030;-62
2022/11/01 05:15:56;;;;;;;5.13;2.80;;;15.50;99.90;;;;;;5002990;28;20033;-63
2022/11/01 05:18:21;;;;;;;15.40;4.03;;;15.60;99.90;;;;;;5009949;28;20096;-63
2022/11/01 05:20:47;;;;;;;15.40;4.10;;;15.60;99.90;;;;;;5012052;28;20125;-62
2022/11/01 05:23:12;;;;;;;7.07;3.70;;;15.60;99.90;;;;;;5011545;28;20098;-62
2022/11/01 05:25:38;;;;;;;9.57;3.38;;;15.50;99.90;;;;;;5013576;28;20108;-62
2022/11/01 05:28:10;;;;;;;9.40;3.40;;;15.50;99.90;;;;;;5014651;28;20030;-62
2022/11/01 05:30:36;;;;;;;11.25;3.22;;;15.50;99.90;;;;;;5009853;28;20128;-60
2022/11/01 05:33:04;;;;;;;12.52;3.97;;;15.50;99.90;;;;;;5007654;28;20759;-61
2022/11/01 05:35:30;;;;;;;9.25;3.15;;;15.40;99.90;;;;;;5010947;28;20041;-62
2022/11/01 05:37:56;;;;;;;8.85;3.70;;;15.50;99.90;;;;;;5010032;28;20030;-62
2022/11/01 05:40:22;;;;;;;9.10;3.38;;;15.50;99.90;;;;;;5015287;28;20128;-62
2022/11/01 05:42:48;;;;;;;11.15;4.07;;;15.60;99.90;;;;;;5011611;28;20399;-64
2022/11/01 05:45:14;;;;;;;12.40;3.47;;;15.50;99.90;;;;;;5007086;28;20032;-63
2022/11/01 05:47:40;;;;;;;5.20;3.25;;;15.70;99.90;;;;;;5010280;28;20041;-63
2022/11/01 05:50:07;;;;;;;13.88;3.33;;;15.70;99.90;;;;;;5010456;28;20627;-64
2022/11/01 05:52:33;;;;;;;7.13;3.20;;;15.60;99.90;;;;;;5008229;28;20061;-63
2022/11/01 05:54:58;;;;;;;9.23;2.13;;;15.90;99.90;;;;;;5008075;28;20072;-62
2022/11/01 05:57:25;;;;;;;8.95;2.78;;;16.20;99.90;;;;;;5010455;28;20118;-62
2022/11/01 05:59:50;;;;;;;12.27;2.25;;;16.10;99.90;;;;;;5011459;28;20026;-63
2022/11/01 06:02:16;;;;;;;6.25;2.00;;;16.20;99.90;;;;;;5009857;28;20085;-64
2022/11/01 06:04:41;;;;;;;6.85;1.83;;;16.60;99.90;;;;;;5004351;28;20026;-62
2022/11/01 06:07:07;;;;;;;7.57;2.08;;;16.70;99.90;;;;;;5010462;28;20435;-62
2022/11/01 06:09:33;;;;;;;7.15;1.38;;;16.70;99.90;;;;;;5007449;28;20080;-60
2022/11/01 06:11:58;;;;;;;9.70;1.95;;;16.90;99.90;;;;;;5010629;28;20410;-60
2022/11/01 06:14:24;;;;;;;2.58;1.40;;;17.00;99.90;;;;;;5008975;28;20077;-61
2022/11/01 06:16:50;;;;;;;6.18;1.35;;;17.00;99.90;;;;;;5010300;28;20053;-63
2022/11/01 06:19:15;;;;;;;7.07;1.77;;;17.00;99.90;;;;;;5007777;28;20109;-65
2022/11/01 06:21:41;;;;;;;6.63;1.75;;;16.90;99.90;;;;;;5008464;28;20026;-63
2022/11/01 06:24:08;;;;;;;4.13;1.02;;;16.80;99.90;;;;;;5010597;28;20044;-63
2022/11/01 06:26:34;;;;;;;5.88;1.45;;;16.80;99.90;;;;;;4989379;28;20052;-62
2022/11/01 06:29:03;;;;;;;5.18;1.45;;;16.90;99.90;;;;;;5010390;28;20484;-63
2022/11/01 06:31:30;;;;;;;11.80;1.45;;;16.80;99.90;;;;;;5007371;28;20120;-61
2022/11/01 06:33:55;;;;;;;2.63;1.20;;;16.80;99.90;;;;;;5008569;28;20052;-63
2022/11/01 06:36:22;;;;;;;3.00;1.30;;;16.80;99.90;;;;;;4992767;28;20099;-60
2022/11/01 06:38:48;;;;;;;5.68;1.48;;;16.70;99.90;;;;;;5008666;28;20034;-62
2022/11/01 06:41:13;;;;;;;2.28;1.30;;;16.60;99.90;;;;;;5010207;28;20407;-60
2022/11/01 06:43:39;;;;;;;7.88;1.38;;;16.70;99.90;;;;;;5005563;28;20053;-62
2022/11/01 06:46:05;;;;;;;3.63;1.08;;;16.70;99.90;;;;;;5006904;28;20058;-62
2022/11/01 06:48:30;;;;;;;5.85;1.00;;;16.50;99.90;;;;;;5006994;28;20037;-62
2022/11/01 06:50:56;;;;;;;6.13;1.10;;;16.50;99.90;;;;;;5000467;28;20033;-61
2022/11/01 06:53:23;;;;;;;6.25;1.10;;;16.50;99.90;;;;;;5011180;28;20022;-62
2022/11/01 06:55:49;;;;;;;3.30;1.10;;;16.40;99.90;;;;;;5008991;28;20057;-63
2022/11/01 06:58:14;;;;;;;7.63;1.92;;;16.40;99.90;;;;;;5009169;28;20135;-60
2022/11/01 07:00:40;;;;;;;2.17;0.88;;;16.40;99.90;;;;;;5008773;28;20029;-63
2022/11/01 07:03:08;;;;;;;3.35;1.08;;;16.40;99.90;;;;;;5005879;28;20565;-60
2022/11/01 07:05:36;;;;;;;5.35;1.15;;;16.30;99.90;;;;;;5008689;28;20022;-60
2022/11/01 07:08:03;;;;;;;5.15;1.20;;;16.30;99.90;;;;;;5007206;28;20026;-60
2022/11/01 07:10:29;;;;;;;2.30;1.00;;;16.20;99.90;;;;;;5012846;28;20029;-62
2022/11/01 07:12:58;;;;;;;3.22;1.10;;;16.10;99.90;;;;;;5007421;28;20021;-61
2022/11/01 07:15:25;;;;;;;1.98;1.10;;;16.10;99.90;;;;;;5008736;28;20121;-58
2022/11/01 07:17:54;;;;;;;4.88;0.90;;;16.00;99.90;;;;;;5008659;28;20488;-62
2022/11/01 07:20:20;;;;;;;6.35;1.00;;;16.00;99.90;;;;;;5005394;28;20048;-62
2022/11/01 07:22:45;;;;;;;8.30;1.00;;;15.90;99.90;;;;;;5005277;28;20026;-62
2022/11/01 07:25:11;;;;;;;2.97;1.15;;;15.80;99.90;;;;;;5007416;28;20038;-62
2022/11/01 07:27:36;;;;;;;4.63;0.85;;;15.70;99.90;;;;;;5008970;28;20079;-62
2022/11/01 07:30:03;;;;;;;4.03;0.93;;;15.60;99.90;;;;;;5008882;28;20022;-63
2022/11/01 07:32:29;;;;;;;4.10;0.70;;;15.60;99.90;;;;;;5011013;28;20021;-62
2022/11/01 07:34:54;;;;;;;4.38;1.00;;;15.50;99.90;;;;;;5006121;28;20532;-62
2022/11/01 07:37:20;;;;;;;3.92;0.70;;;15.40;99.90;;;;;;5012964;28;20026;-62
2022/11/01 07:39:46;;;;;;;10.80;0.90;;;15.40;99.90;;;;;;5004779;28;20037;-63
2022/11/01 07:42:11;;;;;;;4.55;0.98;;;15.30;99.90;;;;;;5002441;28;20036;-62
2022/11/01 07:44:37;;;;;;;1.52;0.63;;;15.30;99.90;;;;;;5009037;28;20087;-60
2022/11/01 07:47:03;;;;;;;4.55;0.80;;;15.30;99.90;;;;;;5004961;28;20492;-62
2022/11/01 07:49:28;;;;;;;2.60;0.80;;;15.20;99.90;;;;;;5009143;28;20033;-62
2022/11/01 07:51:54;;;;;;;5.53;0.60;;;15.20;99.90;;;;;;5003695;28;20029;-62
2022/11/01 07:54:19;;;;;;;4.60;1.00;;;15.20;99.90;;;;;;5007591;28;20026;-63
2022/11/01 07:56:46;;;;;;;2.67;0.82;;;15.20;99.90;;;;;;4989246;28;20026;-62
2022/11/01 07:59:11;;;;;;;4.22;0.98;;;15.20;99.90;;;;;;5006581;28;20113;-61
2022/11/01 08:01:37;;;;;;;8.80;0.80;;;15.20;99.90;;;;;;5002281;28;20030;-61
2022/11/01 08:04:02;;;;;;;3.38;1.05;;;15.20;99.90;;;;;;5007421;28;20042;-61
2022/11/01 08:06:28;;;;;;;11.75;0.90;;;15.20;99.90;;;;;;5005194;28;20034;-62
2022/11/01 08:08:53;;;;;;;5.93;0.88;;;15.10;99.90;;;;;;5006957;28;20037;-60
2022/11/01 08:11:19;;;;;;;5.35;0.90;;;15.10;99.90;;;;;;5007245;28;20395;-60
2022/11/01 08:13:44;;;;;;;7.68;0.93;;;15.10;99.90;;;;;;5003722;28;20072;-60
2022/11/01 08:16:10;;;;;;;14.93;1.23;;;15.10;99.90;;;;;;5008225;28;20176;-60
2022/11/01 08:18:35;;;;;;;11.70;1.10;;;15.10;99.90;;;;;;5005982;28;20488;-59
2022/11/01 08:21:01;;;;;;;4.35;1.25;;;15.10;99.90;;;;;;5002595;28;20488;-61
2022/11/01 08:23:26;;;;;;;8.52;1.10;;;15.10;99.90;;;;;;5007493;28;20092;-60
2022/11/01 08:25:52;;;;;;;9.07;1.27;;;15.10;99.90;;;;;;5009519;28;20045;-61
2022/11/01 08:28:19;;;;;;;20.70;1.63;;;15.10;99.90;;;;;;5006332;28;20462;-62
2022/11/01 08:30:47;;;;;;;10.55;1.40;;;15.10;99.90;;;;;;5006901;28;20557;-59
2022/11/01 08:33:13;;;;;;;8.00;1.00;;;15.10;99.90;;;;;;5006001;28;20034;-60
2022/11/01 08:35:38;;;;;;;11.20;1.33;;;15.10;99.90;;;;;;5004565;28;20088;-61
2022/11/01 08:38:04;;;;;;;11.93;1.50;;;15.10;99.90;;;;;;5004280;28;20443;-60
2022/11/01 08:40:31;;;;;;;13.55;1.08;;;15.10;99.90;;;;;;5007439;28;20034;-58
2022/11/01 08:42:56;;;;;;;17.75;2.45;;;15.10;99.90;;;;;;5007195;28;20488;-60
2022/11/01 08:45:23;;;;;;;19.15;1.35;;;15.20;99.90;;;;;;5005480;28;20049;-58
2022/11/01 08:47:48;;;;;;;12.93;1.45;;;15.20;99.90;;;;;;4999311;28;20092;-60
2022/11/01 08:50:16;;;;;;;9.98;1.10;;;15.30;99.90;;;;;;5004433;28;20503;-63
2022/11/01 08:52:42;;;;;;;9.65;1.38;;;15.30;99.90;;;;;;5005335;28;20033;-58
2022/11/01 08:55:10;;;;;;;14.93;1.70;;;15.30;99.90;;;;;;5011683;28;20381;-60
2022/11/01 08:57:36;;;;;;;7.85;1.42;;;15.30;99.90;;;;;;5003512;28;20425;-62
2022/11/01 09:00:05;;;;;;;11.25;1.85;;;15.40;99.90;;;;;;5008950;28;20034;-61
2022/11/01 09:02:31;;;;;;;13.50;1.13;;;15.40;99.90;;;;;;5005164;28;20029;-61
2022/11/01 09:04:57;;;;;;;11.25;1.25;;;15.60;99.90;;;;;;5007687;28;20049;-60
2022/11/01 09:07:22;;;;;;;9.18;1.20;;;15.60;99.90;;;;;;5011067;28;20026;-61
2022/11/01 09:09:48;;;;;;;5.25;0.95;;;15.60;99.90;;;;;;5010059;28;20515;-62
2022/11/01 09:12:13;;;;;;;14.07;1.23;;;15.60;99.90;;;;;;4986323;28;20095;-61
2022/11/01 09:14:39;;;;;;;19.65;1.30;;;15.70;99.90;;;;;;5008456;28;20034;-62
2022/11/01 09:17:04;;;;;;;9.13;1.10;;;15.80;99.90;;;;;;5008328;28;20034;-62
2022/11/01 09:19:30;;;;;;;7.85;0.98;;;15.90;99.90;;;;;;5006142;28;20443;-60
2022/11/01 09:21:55;;;;;;;5.53;0.80;;;15.80;99.90;;;;;;5006700;28;20585;-62
2022/11/01 09:24:21;;;;;;;12.70;1.20;;;15.90;99.90;;;;;;5004338;28;20076;-59
2022/11/01 09:26:46;;;;;;;14.93;1.40;;;16.00;99.90;;;;;;5007571;28;20056;-59
2022/11/01 09:29:12;;;;;;;10.45;1.30;;;16.00;99.90;;;;;;5007708;28;20058;-60
2022/11/01 09:31:38;;;;;;;9.05;0.95;;;16.10;99.90;;;;;;5009525;28;20021;-60
2022/11/01 09:34:03;;;;;;;5.53;0.90;;;16.10;99.90;;;;;;5007090;28;20037;-60
2022/11/01 09:36:29;;;;;;;7.13;0.95;;;16.30;99.90;;;;;;5009447;28;20116;-60
2022/11/01 09:38:56;;;;;;;11.32;1.00;;;16.30;99.90;;;;;;5009994;28;20120;-60
2022/11/01 09:41:33;;;;;;;7.82;1.30;;;16.30;99.90;;;;;;5009628;28;20021;-60
2022/11/01 09:44:02;;;;;;;4.68;0.80;;;16.40;99.90;;;;;;5010737;28;20030;-60
2022/11/01 09:46:42;;;;;;;8.95;1.13;;;16.40;99.90;;;;;;5009655;28;20034;-60
2022/11/01 09:49:11;;;;;;;12.65;1.15;;;16.40;99.90;;;;;;5008280;28;20092;-60
2022/11/01 09:51:38;;;;;;;6.10;0.82;;;16.40;99.90;;;;;;5009071;28;20029;-60
2022/11/01 09:54:03;;;;;;;9.45;1.10;;;16.50;99.90;;;;;;5009926;28;20033;-59
2022/11/01 09:56:43;;;;;;;6.22;0.95;;;16.50;99.90;;;;;;5013453;28;20026;-60
2022/11/01 09:59:30;;;;;;;8.73;1.10;;;16.60;99.90;;;;;;5011425;28;20360;-60
2022/11/01 10:02:33;;;;;;;7.80;1.10;;;16.70;99.90;;;;;;5006896;28;20061;-59
2022/11/01 10:05:40;;;;;;;6.50;1.00;;;16.70;99.90;;;;;;5009564;28;20169;-59
2022/11/01 10:08:24;;;;;;;12.35;1.48;;;16.70;99.90;;;;;;5025557;22;20069;-60
2022/11/01 10:11:18;;;;;;;6.03;1.37;;;16.90;99.90;;;;;;5029831;28;20111;-60
2022/11/01 10:13:57;;;;;;;5.70;0.90;;;17.00;99.90;;;;;;5037388;28;20406;-58
2022/11/01 10:16:36;;;;;;;4.60;1.55;;;17.00;99.90;;;;;;5041471;28;20043;-60
2022/11/01 10:19:14;;;;;;;3.40;0.75;;;17.10;99.90;;;;;;5018121;28;20029;-60
2022/11/01 10:21:49;;;;;;;6.10;0.68;;;17.10;99.90;;;;;;5019758;28;20033;-60
2022/11/01 10:24:37;;;;;;;2.72;0.70;;;17.20;99.90;;;;;;5023560;28;20029;-59
2022/11/01 10:27:12;;;;;;;8.75;1.08;;;17.30;99.90;;;;;;5022310;28;20110;-59
2022/11/01 10:30:02;;;;;;;10.32;1.55;;;17.30;99.90;;;;;;5016745;28;20021;-59
2022/11/01 10:32:56;;;;;;;10.50;0.82;;;17.20;99.90;;;;;;5027773;28;20049;-60
2022/11/01 10:35:34;;;;;;;2.73;0.77;;;17.30;99.90;;;;;;5024449;28;20105;-58
2022/11/01 10:38:13;;;;;;;8.95;1.13;;;17.30;99.90;;;;;;5016680;28;20373;-58
2022/11/01 10:40:45;;;;;;;5.55;1.13;;;17.30;99.90;;;;;;5024511;28;20108;-59
2022/11/01 10:43:15;;;;;;;5.47;1.63;;;17.30;99.90;;;;;;5022956;28;20083;-57
2022/11/01 10:45:44;;;;;;;10.02;1.20;;;17.40;99.90;;;;;;5024360;28;20107;-57
2022/11/01 10:48:26;;;;;;;4.30;0.70;;;17.40;99.90;;;;;;5021422;28;20025;-59
2022/11/01 10:50:53;;;;;;;9.63;1.05;;;17.40;99.90;;;;;;5023062;28;20173;-57
2022/11/01 10:53:20;;;;;;;6.60;0.90;;;17.50;99.90;;;;;;5024745;28;20064;-59
2022/11/01 10:55:56;;;;;;;6.90;0.98;;;17.60;99.90;;;;;;5020340;28;20037;-58
2022/11/01 10:58:37;;;;;;;8.63;1.05;;;17.60;99.90;;;;;;5027423;28;20830;-58
2022/11/01 11:01:08;;;;;;;5.18;0.68;;;17.80;99.90;;;;;;5020473;28;20069;-58
2022/11/01 11:03:34;;;;;;;7.70;1.08;;;17.90;99.90;;;;;;5026433;28;20549;-55
2022/11/01 11:06:03;;;;;;;7.60;1.05;;;17.90;99.90;;;;;;5025262;28;20021;-58
2022/11/01 11:08:30;;;;;;;8.40;1.10;;;17.90;99.90;;;;;;5027050;28;20018;-58
2022/11/01 11:11:03;;;;;;;6.10;1.90;;;17.90;99.90;;;;;;5030523;28;20032;-58
2022/11/01 11:13:30;;;;;;;7.55;0.70;;;17.90;99.90;;;;;;5030334;28;20033;-57
2022/11/01 11:16:03;;;;;;;6.68;1.33;;;18.00;99.90;;;;;;5028439;28;20105;-57
2022/11/01 11:18:32;;;;;;;7.57;0.95;;;18.00;99.90;;;;;;5022084;28;20116;-55
2022/11/01 11:21:03;;;;;;;3.33;0.90;;;18.00;99.90;;;;;;5026014;28;20080;-58
2022/11/01 11:23:35;;;;;;;9.93;1.08;;;18.10;99.90;;;;;;5023613;28;20065;-58
2022/11/01 11:26:12;;;;;;;7.13;1.00;;;18.10;99.90;;;;;;5027745;28;20487;-58
2022/11/01 11:28:41;;;;;;;14.20;1.23;;;18.20;99.90;;;;;;5025208;28;20025;-59
2022/11/01 11:31:20;;;;;;;4.10;0.80;;;18.20;99.90;;;;;;5022359;28;20387;-60
2022/11/01 11:33:50;;;;;;;9.85;1.40;;;18.10;99.90;;;;;;5017823;28;20549;-55
2022/11/01 11:36:17;;;;;;;7.38;1.25;;;18.10;99.90;;;;;;5024117;28;20030;-58
2022/11/01 11:38:45;;;;;;;8.10;1.10;;;18.10;99.90;;;;;;5022771;28;20034;-58
2022/11/01 11:41:23;;;;;;;6.97;1.10;;;18.10;99.90;;;;;;5018942;28;20033;-62
2022/11/01 11:43:49;;;;;;;9.57;1.10;;;18.10;99.90;;;;;;5025883;28;20017;-58
2022/11/01 11:46:20;;;;;;;8.05;1.77;;;18.20;99.90;;;;;;5028107;28;20030;-56
2022/11/01 11:48:46;;;;;;;6.70;0.95;;;18.50;99.90;;;;;;5026265;28;20021;-59
2022/11/01 11:51:12;;;;;;;13.30;1.15;;;18.50;99.90;;;;;;5028450;28;20499;-59
2022/11/01 11:53:38;;;;;;;10.63;1.63;;;18.50;99.90;;;;;;5024896;28;20033;-59
2022/11/01 11:56:05;;;;;;;7.28;1.40;;;18.50;99.90;;;;;;5022653;28;20056;-59
2022/11/01 11:58:47;;;;;;;14.30;1.15;;;18.90;99.90;;;;;;5003878;28;20060;-60
2022/11/01 12:01:19;;;;;;;5.68;1.30;;;19.00;99.90;;;;;;5021659;28;20506;-57
2022/11/01 12:04:07;;;;;;;14.50;1.65;;;18.90;99.90;;;;;;5010155;28;20064;-58
2022/11/01 12:06:39;;;;;;;6.82;1.42;;;19.10;99.90;;;;;;5020706;28;20080;-61
2022/11/01 12:09:25;;;;;;;7.07;0.98;;;19.00;99.90;;;;;;5026435;28;20112;-61
2022/11/01 12:11:51;;;;;;;7.25;1.02;;;18.90;99.90;;;;;;5022048;28;20032;-62
2022/11/01 12:14:22;;;;;;;11.82;1.58;;;18.90;99.90;;;;;;5004511;28;20030;-60
2022/11/01 12:16:48;;;;;;;8.45;1.40;;;18.80;99.80;;;;;;5025192;28;20356;-61
2022/11/01 12:19:24;;;;;;;19.70;1.67;;;18.90;99.90;;;;;;5020889;28;20033;-58
2022/11/01 12:21:50;;;;;;;8.77;1.40;;;18.90;99.90;;;;;;5022715;28;20124;-61
2022/11/01 12:24:28;;;;;;;8.18;1.35;;;18.90;99.90;;;;;;5019018;28;20108;-59
2022/11/01 12:26:56;;;;;;;8.32;1.33;;;18.90;99.90;;;;;;5024735;28;20819;-60
2022/11/01 12:29:40;;;;;;;7.63;1.65;;;19.00;99.90;;;;;;5024630;28;20140;-56
2022/11/01 12:32:14;;;;;;;9.52;1.15;;;18.90;99.90;;;;;;5020519;28;20033;-59
2022/11/01 12:34:43;;;;;;;10.00;1.50;;;18.80;99.90;;;;;;5023646;28;20032;-61
2022/11/01 12:37:20;;;;;;;10.55;1.48;;;18.80;99.90;;;;;;5019796;28;20033;-58
2022/11/01 12:39:54;;;;;;;6.25;1.40;;;18.90;99.90;;;;;;5028214;28;20025;-58
2022/11/01 12:42:27;;;;;;;11.05;1.45;;;18.80;99.90;;;;;;5019324;28;20480;-59
2022/11/01 12:45:07;;;;;;;12.80;1.60;;;18.80;99.90;;;;;;5023937;28;20026;-60
2022/11/01 12:47:39;;;;;;;7.05;1.42;;;18.90;99.90;;;;;;5025378;28;20040;-59
2022/11/01 12:50:27;;;;;;;9.90;1.05;;;19.00;99.90;;;;;;5027799;28;20028;-60
2022/11/01 12:53:12;;;;;;;8.05;1.65;;;19.10;99.90;;;;;;5027634;28;20024;-61
2022/11/01 12:55:39;;;;;;;6.97;1.17;;;19.00;99.90;;;;;;5022588;28;20037;-61
2022/11/01 12:58:13;;;;;;;13.55;1.52;;;19.10;99.90;;;;;;5020752;28;20641;-61
2022/11/01 13:01:13;;;;;;;9.57;1.77;;;18.90;99.90;;;;;;5021511;28;20069;-61
2022/11/01 13:04:01;;;;;;;9.60;1.30;;;18.90;99.90;;;;;;5026502;28;20403;-61
2022/11/01 13:06:50;;;;;;;3.75;1.00;;;18.90;99.90;;;;;;5025036;28;20042;-61